createdAt,value
2024-04-18T00:00:01.363Z,79.15
2024-04-18T00:02:59.674Z,79.23
2024-04-18T00:05:34.010Z,78.80
2024-04-18T00:08:02.266Z,78.47
2024-04-18T00:10:30.137Z,78.91
2024-04-18T00:12:58.262Z,78.88
2024-04-18T00:15:27.042Z,78.76
2024-04-18T00:17:57.838Z,78.86
2024-04-18T00:20:26.521Z,79.14
2024-04-18T00:22:54.464Z,78.82
2024-04-18T00:25:34.613Z,78.88
2024-04-18T00:28:02.848Z,77.82
2024-04-18T00:30:40.910Z,78.24
2024-04-18T00:33:09.918Z,79.04
2024-04-18T00:35:40.849Z,79.19
2024-04-18T00:38:15.585Z,79.30
2024-04-18T00:40:44.345Z,79.49
2024-04-18T00:43:21.779Z,78.83
2024-04-18T00:45:54.642Z,78.70
2024-04-18T00:48:23.873Z,78.81
2024-04-18T00:50:54.954Z,78.43
2024-04-18T00:53:25.596Z,78.39
2024-04-18T00:55:55.836Z,78.36
2024-04-18T00:58:43.028Z,78.59
2024-04-18T01:01:22.071Z,78.85
2024-04-18T01:03:57.477Z,78.75
2024-04-18T01:06:42.685Z,78.74
2024-04-18T01:09:17.562Z,78.95
2024-04-18T01:12:04.662Z,78.82
2024-04-18T01:14:32.827Z,78.96
2024-04-18T01:17:04.626Z,79.08
2024-04-18T01:19:32.916Z,79.13
2024-04-18T01:22:04.733Z,78.60
2024-04-18T01:24:34.652Z,78.55
2024-04-18T01:27:02.975Z,78.83
2024-04-18T01:29:44.141Z,78.33
2024-04-18T01:32:38.675Z,78.62
2024-04-18T01:35:07.752Z,79.06
2024-04-18T01:37:48.555Z,79.11
2024-04-18T01:40:17.164Z,78.62
2024-04-18T01:42:45.289Z,79.00
2024-04-18T01:45:25.998Z,79.74
2024-04-18T01:48:13.496Z,79.89
2024-04-18T01:50:41.705Z,79.76
2024-04-18T01:53:30.277Z,79.41
2024-04-18T01:55:58.251Z,79.90
2024-04-18T01:58:45.330Z,79.76
2024-04-18T02:01:13.756Z,80.07
2024-04-18T02:03:42.024Z,80.27
2024-04-18T02:06:16.707Z,79.91
2024-04-18T02:08:50.789Z,80.08
2024-04-18T02:11:19.121Z,79.85
2024-04-18T02:14:06.126Z,80.25
2024-04-18T02:16:34.241Z,80.03
2024-04-18T02:19:20.963Z,80.21
2024-04-18T02:22:07.532Z,80.24
2024-04-18T02:24:44.194Z,80.29
2024-04-18T02:27:12.270Z,80.80
2024-04-18T02:29:40.630Z,81.08
2024-04-18T02:32:08.708Z,80.38
2024-04-18T02:34:36.796Z,81.08
2024-04-18T02:37:24.012Z,80.78
2024-04-18T02:39:52.256Z,80.95
2024-04-18T02:42:26.725Z,81.20
2024-04-18T02:45:01.365Z,81.37
2024-04-18T02:47:51.058Z,81.61
2024-04-18T02:50:37.528Z,81.24
2024-04-18T02:53:05.895Z,81.03
2024-04-18T02:55:33.803Z,81.52
2024-04-18T02:58:01.698Z,81.67
2024-04-18T03:00:30.541Z,82.31
2024-04-18T03:03:10.675Z,81.88
2024-04-18T03:06:05.454Z,82.24
2024-04-18T03:08:33.463Z,82.54
2024-04-18T03:11:19.745Z,82.74
2024-04-18T03:14:07.373Z,82.27
2024-04-18T03:16:36.347Z,82.52
2024-04-18T03:19:19.970Z,82.67
2024-04-18T03:21:54.777Z,82.49
2024-04-18T03:24:24.344Z,82.03
2024-04-18T03:26:53.728Z,82.26
2024-04-18T03:29:21.658Z,83.23
2024-04-18T03:31:58.797Z,83.45
2024-04-18T03:34:45.834Z,82.66
2024-04-18T03:37:13.934Z,82.71
2024-04-18T03:39:42.057Z,82.58
2024-04-18T03:42:10.001Z,82.83
2024-04-18T03:44:54.575Z,83.49
2024-04-18T03:47:22.583Z,82.54
2024-04-18T03:50:09.302Z,82.74
2024-04-18T03:52:41.124Z,83.61
2024-04-18T03:55:27.884Z,84.00
2024-04-18T03:57:56.016Z,83.60
2024-04-18T04:00:43.622Z,83.60
2024-04-18T04:03:12.238Z,84.25
2024-04-18T04:05:40.776Z,84.12
2024-04-18T04:08:08.934Z,84.56
2024-04-18T04:10:42.184Z,83.90
2024-04-18T04:13:10.913Z,84.09
2024-04-18T04:15:50.126Z,84.03
2024-04-18T04:18:36.840Z,83.79
2024-04-18T04:21:23.829Z,84.70
2024-04-18T04:23:52.365Z,84.85
2024-04-18T04:26:21.068Z,84.77
2024-04-18T04:28:49.127Z,85.11
2024-04-18T04:31:16.990Z,85.24
2024-04-18T04:33:45.271Z,85.57
2024-04-18T04:36:13.296Z,85.43
2024-04-18T04:38:41.540Z,84.93
2024-04-18T04:41:09.493Z,85.23
2024-04-18T04:43:39.906Z,85.16
2024-04-18T04:46:15.619Z,85.18
2024-04-18T04:48:43.543Z,84.73
2024-04-18T04:51:11.696Z,84.35
2024-04-18T04:53:39.771Z,84.51
2024-04-18T04:56:09.500Z,83.54
2024-04-18T04:58:37.695Z,83.52
2024-04-18T05:01:05.700Z,83.05
2024-04-18T05:03:39.931Z,83.75
2024-04-18T05:06:26.995Z,85.20
2024-04-18T05:09:17.601Z,84.96
2024-04-18T05:11:46.558Z,84.93
2024-04-18T05:14:33.141Z,84.08
2024-04-18T05:17:21.468Z,84.06
2024-04-18T05:20:10.461Z,84.38
2024-04-18T05:22:38.432Z,85.04
2024-04-18T05:25:07.523Z,85.03
2024-04-18T05:27:44.045Z,85.00
2024-04-18T05:30:51.212Z,84.88
2024-04-18T05:33:19.314Z,84.75
2024-04-18T05:35:47.622Z,84.28
2024-04-18T05:38:15.800Z,84.42
2024-04-18T05:40:45.665Z,84.10
2024-04-18T05:43:14.288Z,83.74
2024-04-18T05:45:50.195Z,83.83
2024-04-18T05:48:19.628Z,83.23
2024-04-18T05:50:47.825Z,83.39
2024-04-18T05:53:22.099Z,82.77
2024-04-18T05:55:53.963Z,82.41
2024-04-18T05:58:22.038Z,82.17
2024-04-18T06:00:57.160Z,81.16
2024-04-18T06:03:27.092Z,81.74
2024-04-18T06:05:57.493Z,81.74
2024-04-18T06:08:26.137Z,81.25
2024-04-18T06:10:54.331Z,81.94
2024-04-18T06:13:26.172Z,82.53
2024-04-18T06:15:54.964Z,81.51
2024-04-18T06:18:23.488Z,81.84
2024-04-18T06:20:51.879Z,81.78
2024-04-18T06:23:20.596Z,80.95
2024-04-18T06:26:08.032Z,80.82
2024-04-18T06:28:36.404Z,81.04
2024-04-18T06:31:04.497Z,81.59
2024-04-18T06:33:32.828Z,82.08
2024-04-18T06:36:02.962Z,81.92
2024-04-18T06:38:31.148Z,82.44
2024-04-18T06:40:59.522Z,82.62
2024-04-18T06:43:42.421Z,82.70
2024-04-18T06:46:11.331Z,82.67
2024-04-18T06:48:39.521Z,82.77
2024-04-18T06:51:07.770Z,83.52
2024-04-18T06:53:35.790Z,83.29
2024-04-18T06:56:04.462Z,82.65
2024-04-18T06:58:32.815Z,83.26
2024-04-18T07:01:00.881Z,83.14
2024-04-18T07:03:29.238Z,83.23
2024-04-18T07:06:00.051Z,83.14
2024-04-18T07:08:28.246Z,82.44
2024-04-18T07:10:56.816Z,82.54
2024-04-18T07:13:33.316Z,82.51
2024-04-18T07:16:22.901Z,82.73
2024-04-18T07:18:56.971Z,81.88
2024-04-18T07:21:24.990Z,82.00
2024-04-18T07:24:13.104Z,80.91
2024-04-18T07:26:44.044Z,81.68
2024-04-18T07:29:12.336Z,81.38
2024-04-18T07:31:40.631Z,80.92
2024-04-18T07:34:15.499Z,81.43
2024-04-18T07:36:48.715Z,81.46
2024-04-18T07:39:16.996Z,81.66
2024-04-18T07:41:45.085Z,81.00
2024-04-18T07:44:13.746Z,80.92
2024-04-18T07:46:41.959Z,80.12
2024-04-18T07:49:11.602Z,80.84
2024-04-18T07:51:41.658Z,81.13
2024-04-18T07:54:09.733Z,80.62
2024-04-18T07:56:37.783Z,80.26
2024-04-18T07:59:06.787Z,80.46
2024-04-18T08:01:38.338Z,80.58
2024-04-18T08:04:27.500Z,80.71
2024-04-18T08:06:58.561Z,80.78
2024-04-18T08:09:30.516Z,80.66
2024-04-18T08:14:35.481Z,80.24
2024-04-18T08:17:06.089Z,79.27
2024-04-18T08:19:34.009Z,78.95
2024-04-18T08:22:04.426Z,78.01
2024-04-18T08:24:35.013Z,79.20
2024-04-18T08:27:09.523Z,79.31
2024-04-18T08:29:37.922Z,79.96
2024-04-18T08:32:06.523Z,81.10
2024-04-18T08:34:39.323Z,80.67
2024-04-18T08:37:09.189Z,81.24
2024-04-18T08:39:37.499Z,80.54
2024-04-18T08:42:10.741Z,81.03
2024-04-18T08:44:39.147Z,81.25
2024-04-18T08:47:08.728Z,81.10
2024-04-18T08:49:39.411Z,79.99
2024-04-18T08:52:07.960Z,79.70
2024-04-18T08:54:36.257Z,79.89
2024-04-18T08:57:08.392Z,79.31
2024-04-18T08:59:36.506Z,79.42
2024-04-18T09:02:05.103Z,80.12
2024-04-18T09:04:36.432Z,80.13
2024-04-18T09:07:04.995Z,78.67
2024-04-18T09:09:33.934Z,78.00
2024-04-18T09:12:04.314Z,77.54
2024-04-18T09:14:33.740Z,77.40
2024-04-18T09:17:01.786Z,76.19
2024-04-18T09:19:29.884Z,75.70
2024-04-18T09:22:00.890Z,75.04
2024-04-18T09:24:29.304Z,74.59
2024-04-18T09:26:57.752Z,72.08
2024-04-18T09:29:25.926Z,71.69
2024-04-18T09:31:57.062Z,72.63
2024-04-18T09:34:26.296Z,69.54
2024-04-18T09:36:55.046Z,67.74
2024-04-18T09:39:29.125Z,65.51
2024-04-18T09:42:19.686Z,66.92
2024-04-18T09:44:58.743Z,65.55
2024-04-18T09:47:28.281Z,64.19
2024-04-18T09:49:57.078Z,62.45
2024-04-18T09:52:26.645Z,62.03
2024-04-18T09:54:57.525Z,60.28
2024-04-18T09:57:28.814Z,61.24
2024-04-18T09:59:58.483Z,60.99
2024-04-18T10:02:29.440Z,59.01
2024-04-18T10:04:57.521Z,58.77
2024-04-18T10:07:26.822Z,60.36
2024-04-18T10:09:55.436Z,60.68
2024-04-18T10:12:35.277Z,61.12
2024-04-18T10:15:03.866Z,61.14
2024-04-18T10:17:32.562Z,61.54
2024-04-18T10:20:03.026Z,61.80
2024-04-18T10:22:45.209Z,62.33
2024-04-18T10:25:20.734Z,63.03
2024-04-18T10:27:48.627Z,61.06
2024-04-18T10:30:19.852Z,59.72
2024-04-18T10:32:49.494Z,60.40
2024-04-18T10:35:18.091Z,55.72
2024-04-18T10:37:55.658Z,49.67
2024-04-18T10:40:23.857Z,46.12
2024-04-18T10:42:51.831Z,47.97
2024-04-18T10:45:19.810Z,49.54
2024-04-18T10:47:53.820Z,49.96
2024-04-18T10:50:21.941Z,50.70
2024-04-18T10:52:50.341Z,52.23
2024-04-18T10:55:18.614Z,52.06
2024-04-18T10:57:46.614Z,52.65
2024-04-18T11:00:18.427Z,52.28
2024-04-18T11:02:46.623Z,52.33
2024-04-18T11:05:15.002Z,53.19
2024-04-18T11:07:51.404Z,53.78
2024-04-18T11:10:20.307Z,54.37
2024-04-18T11:12:48.763Z,54.01
2024-04-18T11:15:17.941Z,55.03
2024-04-18T11:17:46.902Z,55.86
2024-04-18T11:20:15.304Z,54.63
2024-04-18T11:22:47.966Z,54.57
2024-04-18T11:25:18.629Z,54.85
2024-04-18T11:28:09.979Z,56.16
2024-04-18T11:30:41.470Z,56.42
2024-04-18T11:33:14.280Z,56.49
2024-04-18T11:35:42.491Z,56.71
2024-04-18T11:38:22.248Z,56.96
2024-04-18T11:40:50.148Z,57.70
2024-04-18T11:43:18.029Z,58.48
2024-04-18T11:45:46.305Z,58.55
2024-04-18T11:48:14.593Z,58.87
2024-04-18T11:50:43.330Z,59.38
2024-04-18T11:53:11.302Z,59.19
2024-04-18T11:55:41.373Z,59.53
2024-04-18T11:58:27.722Z,58.66
2024-04-18T12:00:55.802Z,56.51
2024-04-18T12:03:41.445Z,56.08
2024-04-18T12:06:48.103Z,56.53
2024-04-18T12:09:29.974Z,58.13
2024-04-18T12:12:02.101Z,57.29
2024-04-18T12:14:48.714Z,57.40
2024-04-18T12:17:30.300Z,57.96
2024-04-18T12:20:18.051Z,57.62
2024-04-18T12:22:46.825Z,57.91
2024-04-18T12:25:18.764Z,57.42
2024-04-18T12:27:47.428Z,57.48
2024-04-18T12:30:32.116Z,57.83
2024-04-18T12:33:19.126Z,57.92
2024-04-18T12:35:48.580Z,59.30
2024-04-18T12:38:16.705Z,60.90
2024-04-18T12:40:45.714Z,62.30
2024-04-18T12:43:18.203Z,63.96
2024-04-18T12:46:10.647Z,65.78
2024-04-18T12:48:53.626Z,68.33
2024-04-18T12:51:22.141Z,69.58
2024-04-18T12:53:51.444Z,70.49
2024-04-18T12:56:41.450Z,71.97
2024-04-18T12:59:22.816Z,73.49
2024-04-18T13:01:50.893Z,74.77
2024-04-18T13:04:22.140Z,75.70
2024-04-18T13:06:51.066Z,76.15
2024-04-18T13:09:31.933Z,76.67
2024-04-18T13:12:04.311Z,76.92
2024-04-18T13:14:51.755Z,76.58
2024-04-18T13:17:20.944Z,76.56
2024-04-18T13:19:49.229Z,77.56
2024-04-18T13:22:17.247Z,77.82
2024-04-18T13:24:46.554Z,78.21
2024-04-18T13:27:29.113Z,77.33
2024-04-18T13:29:57.149Z,77.44
2024-04-18T13:32:38.875Z,77.40
2024-04-18T13:35:07.561Z,76.94
2024-04-18T13:37:35.937Z,77.07
2024-04-18T13:40:21.787Z,77.59
2024-04-18T13:43:00.371Z,76.52
2024-04-18T13:45:32.725Z,76.00
2024-04-18T13:48:02.789Z,76.10
2024-04-18T13:50:45.457Z,76.14
2024-04-18T13:53:16.654Z,74.92
2024-04-18T13:55:52.276Z,74.82
2024-04-18T13:58:23.092Z,74.42
2024-04-18T14:01:00.059Z,73.45
2024-04-18T14:03:28.779Z,73.13
2024-04-18T14:06:08.390Z,73.47
2024-04-18T14:08:41.288Z,73.55
2024-04-18T14:11:29.258Z,74.73
2024-04-18T14:14:11.006Z,74.42
2024-04-18T14:17:18.179Z,74.10
2024-04-18T14:20:04.850Z,73.96
2024-04-18T14:22:32.806Z,73.84
2024-04-18T14:25:00.779Z,73.64
2024-04-18T14:27:34.727Z,73.77
2024-04-18T14:30:03.584Z,73.54
2024-04-18T14:32:34.919Z,73.79
2024-04-18T14:35:04.049Z,73.65
2024-04-18T14:37:33.184Z,73.43
2024-04-18T14:40:01.247Z,72.89
2024-04-18T14:42:29.547Z,73.65
2024-04-18T14:44:57.436Z,73.90
2024-04-18T14:47:25.361Z,74.48
2024-04-18T14:50:03.533Z,74.67
2024-04-18T14:52:37.694Z,75.06
2024-04-18T14:55:25.621Z,74.89
2024-04-18T14:58:03.186Z,75.45
2024-04-18T15:00:51.311Z,75.42
2024-04-18T15:03:20.376Z,74.80
2024-04-18T15:05:55.218Z,74.58
2024-04-18T15:08:42.663Z,74.62
2024-04-18T15:11:28.727Z,74.18
2024-04-18T15:14:07.077Z,73.78
2024-04-18T15:16:35.671Z,74.53
2024-04-18T15:19:03.990Z,74.78
2024-04-18T15:21:51.296Z,75.12
2024-04-18T15:24:23.107Z,75.19
2024-04-18T15:27:03.494Z,75.14
2024-04-18T15:29:33.032Z,74.94
2024-04-18T15:32:21.260Z,74.59
2024-04-18T15:34:49.398Z,74.60
2024-04-18T15:37:36.632Z,74.81
2024-04-18T15:40:05.210Z,74.42
2024-04-18T15:42:33.487Z,73.98
2024-04-18T15:45:02.673Z,74.13
2024-04-18T15:47:32.962Z,74.26
2024-04-18T15:50:24.148Z,73.95
2024-04-18T15:52:52.423Z,74.29
2024-04-18T15:55:31.082Z,74.56
2024-04-18T15:58:18.638Z,74.82
2024-04-18T16:00:46.859Z,74.70
2024-04-18T16:03:34.568Z,74.98
2024-04-18T16:06:22.789Z,74.95
2024-04-18T16:09:09.523Z,75.22
2024-04-18T16:11:41.409Z,74.72
2024-04-18T16:14:30.044Z,75.31
2024-04-18T16:17:05.802Z,75.12
2024-04-18T16:19:40.554Z,75.24
2024-04-18T16:22:08.674Z,75.93
2024-04-18T16:24:49.361Z,75.71
2024-04-18T16:27:17.738Z,75.97
2024-04-18T16:30:01.232Z,76.30
2024-04-18T16:32:42.048Z,76.02
2024-04-18T16:35:10.211Z,76.18
2024-04-18T16:37:40.580Z,76.17
2024-04-18T16:40:18.482Z,76.42
2024-04-18T16:43:06.747Z,75.98
2024-04-18T16:45:53.382Z,75.85
2024-04-18T16:48:21.283Z,76.13
2024-04-18T16:50:49.814Z,76.53
2024-04-18T16:53:17.840Z,76.81
2024-04-18T16:55:46.616Z,76.56
2024-04-18T16:58:18.398Z,76.37
2024-04-18T17:00:58.039Z,76.79
2024-04-18T17:03:26.986Z,76.57
2024-04-18T17:06:06.296Z,76.25
2024-04-18T17:08:34.310Z,76.38
2024-04-18T17:11:02.516Z,76.69
2024-04-18T17:13:54.044Z,77.31
2024-04-18T17:16:23.314Z,77.51
2024-04-18T17:18:51.500Z,77.63
2024-04-18T17:21:19.839Z,77.60
2024-04-18T17:23:47.923Z,77.44
2024-04-18T17:26:15.905Z,78.39
2024-04-18T17:28:43.838Z,78.12
2024-04-18T17:31:12.087Z,78.55
2024-04-18T17:33:40.339Z,78.83
2024-04-18T17:36:08.972Z,78.91
2024-04-18T17:38:47.827Z,79.27
2024-04-18T17:41:32.056Z,79.21
2024-04-18T17:44:18.720Z,79.24
2024-04-18T17:47:00.067Z,79.69
2024-04-18T17:49:29.314Z,79.62
2024-04-18T17:51:57.332Z,79.13
2024-04-18T17:54:25.285Z,79.60
2024-04-18T17:56:53.577Z,79.90
2024-04-18T17:59:21.683Z,79.71
2024-04-18T18:01:49.698Z,79.84
2024-04-18T18:04:18.402Z,79.38
2024-04-18T18:06:46.640Z,79.37
2024-04-18T18:09:14.786Z,79.43
2024-04-18T18:11:43.037Z,79.38
2024-04-18T18:14:11.288Z,78.94
2024-04-18T18:16:58.786Z,78.91
2024-04-18T18:19:27.210Z,79.01
2024-04-18T18:21:58.252Z,79.45
2024-04-18T18:24:26.690Z,80.04
2024-04-18T18:26:55.211Z,79.99
2024-04-18T18:29:23.415Z,80.47
2024-04-18T18:32:14.336Z,80.90
2024-04-18T18:34:51.525Z,81.18
2024-04-18T18:37:19.439Z,81.65
2024-04-18T18:40:08.628Z,82.17
2024-04-18T18:42:37.729Z,82.39
2024-04-18T18:45:11.515Z,82.47
2024-04-18T18:47:39.667Z,82.75
2024-04-18T18:50:19.852Z,82.79
2024-04-18T18:52:47.901Z,83.59
2024-04-18T18:55:36.156Z,83.42
2024-04-18T18:58:04.726Z,83.43
2024-04-18T19:00:32.697Z,83.47
2024-04-18T19:03:10.489Z,83.05
2024-04-18T19:05:46.578Z,83.14
2024-04-18T19:08:14.566Z,82.62
2024-04-18T19:10:55.374Z,83.16
2024-04-18T19:13:23.463Z,83.29
2024-04-18T19:15:58.764Z,82.99
2024-04-18T19:18:26.785Z,83.14
2024-04-18T19:20:54.839Z,82.81
2024-04-18T19:23:36.495Z,82.72
2024-04-18T19:26:05.493Z,82.62
2024-04-18T19:28:34.420Z,82.72
2024-04-18T19:31:05.543Z,83.00
2024-04-18T19:33:34.080Z,82.89
2024-04-18T19:36:03.046Z,83.18
2024-04-18T19:38:34.091Z,82.81
2024-04-18T19:41:20.883Z,82.93
2024-04-18T19:43:49.052Z,82.87
2024-04-18T19:46:17.302Z,82.52
2024-04-18T19:49:05.254Z,82.74
2024-04-18T19:51:53.308Z,82.54
2024-04-18T19:54:21.197Z,82.56
2024-04-18T19:56:49.432Z,82.97
2024-04-18T19:59:17.504Z,83.26
2024-04-18T20:01:45.866Z,83.03
2024-04-18T20:04:14.972Z,82.58
2024-04-18T20:06:43.078Z,82.26
2024-04-18T20:09:11.261Z,82.33
2024-04-18T20:11:39.470Z,82.16
2024-04-18T20:14:07.678Z,81.68
2024-04-18T20:16:36.436Z,81.70
2024-04-18T20:19:14.745Z,82.03
2024-04-18T20:21:44.339Z,81.68
2024-04-18T20:24:14.419Z,81.74
2024-04-18T20:27:01.965Z,82.36
2024-04-18T20:29:46.180Z,81.95
2024-04-18T20:32:25.414Z,82.28
2024-04-18T20:34:55.016Z,81.96
2024-04-18T20:37:24.737Z,81.91
2024-04-18T20:39:56.275Z,81.60
2024-04-18T20:42:27.503Z,81.98
2024-04-18T20:45:03.294Z,81.49
2024-04-18T20:47:31.965Z,81.23
2024-04-18T20:50:04.443Z,81.45
2024-04-18T20:52:32.654Z,81.62
2024-04-18T20:55:01.135Z,81.41
2024-04-18T20:57:29.075Z,81.24
2024-04-18T20:59:57.015Z,80.80
2024-04-18T21:02:25.826Z,81.04
2024-04-18T21:04:53.860Z,81.44
2024-04-18T21:07:23.190Z,81.31
2024-04-18T21:09:51.122Z,80.68
2024-04-18T21:12:20.743Z,80.61
2024-04-18T21:14:48.745Z,80.77
2024-04-18T21:17:16.806Z,80.17
2024-04-18T21:19:44.870Z,79.97
2024-04-18T21:22:12.777Z,80.17
2024-04-18T21:24:41.042Z,80.27
2024-04-18T21:27:09.118Z,80.58
2024-04-18T21:29:37.123Z,80.80
2024-04-18T21:32:05.635Z,80.34
2024-04-18T21:34:33.616Z,80.57
2024-04-18T21:37:01.600Z,80.78
2024-04-18T21:39:29.926Z,81.07
2024-04-18T21:41:58.155Z,81.25
2024-04-18T21:44:25.966Z,81.42
2024-04-18T21:46:53.934Z,81.28
2024-04-18T21:49:21.999Z,81.16
2024-04-18T21:51:50.374Z,80.51
2024-04-18T21:54:18.387Z,80.13
2024-04-18T21:56:46.414Z,79.98
2024-04-18T21:59:14.936Z,79.92
2024-04-18T22:01:43.231Z,80.08
2024-04-18T22:04:12.085Z,80.08
2024-04-18T22:06:40.742Z,79.78
2024-04-18T22:09:09.609Z,80.08
2024-04-18T22:11:37.692Z,80.03
2024-04-18T22:14:07.935Z,80.26
2024-04-18T22:16:36.159Z,80.31
2024-04-18T22:19:04.192Z,80.76
2024-04-18T22:21:39.613Z,80.92
2024-04-18T22:24:08.559Z,80.89
2024-04-18T22:26:37.209Z,80.57
2024-04-18T22:29:05.364Z,81.07
2024-04-18T22:31:33.905Z,80.80
2024-04-18T22:34:01.965Z,80.71
2024-04-18T22:36:30.082Z,80.83
2024-04-18T22:38:58.398Z,80.68
2024-04-18T22:41:29.386Z,81.17
2024-04-18T22:43:57.955Z,81.08
2024-04-18T22:46:26.476Z,80.64
2024-04-18T22:48:54.812Z,80.06
2024-04-18T22:51:23.319Z,81.04
2024-04-18T22:53:51.248Z,80.97
2024-04-18T22:56:20.620Z,81.26
2024-04-18T22:58:50.306Z,80.85
2024-04-18T23:01:18.827Z,80.61
2024-04-18T23:03:46.987Z,80.88
2024-04-18T23:06:16.064Z,80.74
2024-04-18T23:08:44.738Z,81.06
2024-04-18T23:11:14.531Z,81.33
2024-04-18T23:13:42.678Z,80.60
2024-04-18T23:16:10.893Z,80.45
2024-04-18T23:18:39.042Z,80.09
2024-04-18T23:21:07.154Z,80.69
2024-04-18T23:23:35.764Z,81.28
2024-04-18T23:26:04.169Z,80.32
2024-04-18T23:28:32.287Z,81.14
2024-04-18T23:31:01.520Z,81.08
2024-04-18T23:33:29.638Z,80.44
2024-04-18T23:35:57.644Z,80.12
2024-04-18T23:38:25.621Z,80.11
2024-04-18T23:40:53.535Z,80.23
2024-04-18T23:43:21.619Z,81.10
2024-04-18T23:45:49.853Z,81.38
2024-04-18T23:48:18.244Z,81.39
2024-04-18T23:50:46.429Z,81.80
2024-04-18T23:53:14.495Z,81.41
2024-04-18T23:55:42.490Z,80.96
2024-04-18T23:58:10.386Z,81.51
